Time;durP1;ratioP1;P1;durP2;ratioP2;P2;SDS_P1;SDS_P2;PMS_P1;PMS_P2;Temp;Humidity;BMP_temperature;BMP_pressure;BME280_temperature;BME280_humidity;BME280_pressure;Samples;Min_cycle;Max_cycle;Signal;HPM_P1;HPM_P2
2023/04/03 00:00:32;;;;;;;0.50;0.47;;;;;;;6.03;92.20;101316.69;5004275;28;20535;-53
2023/04/03 00:02:59;;;;;;;0.50;0.33;;;;;;;6.10;90.14;101321.16;5011937;28;20456;-54
2023/04/03 00:05:26;;;;;;;0.53;0.40;;;;;;;5.94;88.67;101312.25;5011710;28;20490;-53
2023/04/03 00:07:52;;;;;;;1.33;1.33;;;;;;;6.03;87.93;101314.06;5000170;28;20560;-54
2023/04/03 00:10:19;;;;;;;0.40;0.30;;;;;;;6.06;87.30;101320.25;4999023;28;20460;-54
2023/04/03 00:12:45;;;;;;;0.40;0.30;;;;;;;5.86;87.98;101319.19;5011919;28;21058;-54
2023/04/03 00:15:12;;;;;;;0.50;0.40;;;;;;;5.67;87.81;101315.53;5011905;28;20455;-53
2023/04/03 00:17:39;;;;;;;0.40;0.30;;;;;;;5.76;88.36;101322.66;5011499;28;20556;-54
2023/04/03 00:20:06;;;;;;;7.70;1.00;;;;;;;5.88;89.01;101323.59;5011485;28;20498;-53
2023/04/03 00:22:32;;;;;;;0.40;0.30;;;;;;;5.92;88.44;101319.28;4985805;28;20462;-53
2023/04/03 00:24:59;;;;;;;2.97;1.10;;;;;;;6.21;87.22;101322.09;5011485;28;20861;-53
2023/04/03 00:27:25;;;;;;;0.33;0.30;;;;;;;5.94;89.08;101320.19;5011228;28;20487;-54
2023/04/03 00:29:52;;;;;;;2.17;0.57;;;;;;;5.89;89.34;101313.94;5010505;28;20455;-53
2023/04/03 00:32:18;;;;;;;0.40;0.30;;;;;;;6.17;88.83;101320.34;5011240;28;20457;-55
2023/04/03 00:34:45;;;;;;;0.90;0.60;;;;;;;5.98;89.63;101311.41;4997389;28;20906;-53
2023/04/03 00:37:11;;;;;;;0.70;0.40;;;;;;;6.36;88.68;101314.28;5000322;28;20476;-54
2023/04/03 00:39:38;;;;;;;0.67;0.40;;;;;;;6.39;87.13;101322.19;5011645;28;20457;-53
2023/04/03 00:42:04;;;;;;;0.97;0.53;;;;;;;6.40;86.64;101320.44;5001750;28;20552;-54
2023/04/03 00:44:33;;;;;;;0.30;0.20;;;;;;;6.38;86.20;101314.28;5011206;28;20459;-55
2023/04/03 00:47:02;;;;;;;1.00;0.30;;;;;;;6.11;86.24;101312.34;5010766;28;20477;-53
2023/04/03 00:49:29;;;;;;;0.70;0.70;;;;;;;6.43;85.41;101312.53;5011071;28;20467;-53
2023/04/03 00:51:57;;;;;;;0.53;0.50;;;;;;;6.27;84.76;101315.97;5011068;28;20457;-53
2023/04/03 00:54:26;;;;;;;3.73;0.70;;;;;;;6.44;84.33;101314.28;5010703;28;21052;-54
2023/04/03 00:56:55;;;;;;;0.40;0.30;;;;;;;6.11;85.24;101315.00;4996648;28;20885;-53
2023/04/03 00:59:26;;;;;;;0.50;0.50;;;;;;;5.98;86.08;101310.50;4984591;28;20457;-53
2023/04/03 01:01:58;;;;;;;0.93;0.57;;;;;;;5.86;87.79;101311.28;5007110;28;20500;-54
2023/04/03 01:04:35;;;;;;;1.17;0.43;;;;;;;5.95;91.00;101311.38;5002708;28;20456;-53
2023/04/03 01:07:06;;;;;;;0.50;0.50;;;;;;;5.83;90.26;101300.72;5010024;28;21007;-54
2023/04/03 01:09:33;;;;;;;0.47;0.30;;;;;;;5.90;90.39;101311.38;4997655;28;20457;-55
2023/04/03 01:12:23;;;;;;;0.40;0.33;;;;;;;5.95;89.99;101316.66;5010666;28;20453;-54
2023/04/03 01:14:56;;;;;;;3.90;0.90;;;;;;;5.94;90.67;101306.97;5010465;28;20962;-55
2023/04/03 01:17:53;;;;;;;5.90;2.20;;;;;;;6.09;90.33;101311.47;5010594;28;21012;-53
2023/04/03 01:20:31;;;;;;;0.83;0.83;;;;;;;5.99;90.05;101310.53;5010107;28;20500;-55
2023/04/03 01:23:22;;;;;;;0.50;0.50;;;;;;;5.99;91.54;101315.81;5006554;28;20456;-53
2023/04/03 01:25:53;;;;;;;0.50;0.50;;;;;;;5.93;90.92;101305.22;5010131;28;20879;-53
2023/04/03 01:28:26;;;;;;;1.03;1.03;;;;;;;5.98;90.94;101303.47;5010397;28;20452;-54
2023/04/03 01:31:24;;;;;;;0.50;0.40;;;;;;;5.94;89.52;101304.34;4999267;28;20453;-55
2023/04/03 01:33:52;;;;;;;1.17;0.73;;;;;;;5.92;88.83;101300.81;5010514;28;20448;-52
2023/04/03 01:36:25;;;;;;;0.60;0.60;;;;;;;5.92;89.25;101300.81;4995255;28;21068;-54
2023/04/03 01:38:53;;;;;;;0.33;0.33;;;;;;;5.99;89.84;101301.72;5009983;28;20448;-54
2023/04/03 01:41:20;;;;;;;0.37;0.33;;;;;;;6.14;88.47;101294.78;5005624;28;21024;-53
2023/04/03 01:43:48;;;;;;;0.30;0.30;;;;;;;5.97;88.25;101304.34;5004314;28;20456;-54
2023/04/03 01:46:16;;;;;;;0.37;0.23;;;;;;;5.95;88.88;101300.81;4987356;28;20478;-52
2023/04/03 01:48:43;;;;;;;0.67;0.53;;;;;;;5.84;88.46;101303.34;4999449;28;20453;-56
2023/04/03 01:51:10;;;;;;;1.07;1.07;;;;;;;5.85;88.03;101304.25;4988313;28;20453;-53
2023/04/03 01:53:36;;;;;;;1.03;1.03;;;;;;;5.88;88.64;101304.25;5009635;28;20484;-53
2023/04/03 01:56:03;;;;;;;0.87;0.73;;;;;;;5.81;89.27;101307.72;5002542;28;20473;-54
2023/04/03 01:58:30;;;;;;;0.33;0.23;;;;;;;5.73;87.22;101312.94;5005179;28;20457;-53
2023/04/03 02:00:57;;;;;;;1.33;0.30;;;;;;;5.67;88.97;101309.38;4999697;28;20502;-55
2023/04/03 02:03:23;;;;;;;0.70;0.30;;;;;;;6.03;87.55;101308.78;5009541;28;20457;-54
2023/04/03 02:05:50;;;;;;;0.97;0.97;;;;;;;5.84;86.13;101306.00;5009648;28;20501;-55
2023/04/03 02:08:17;;;;;;;0.40;0.30;;;;;;;5.90;85.93;101313.13;5009474;28;20452;-53
2023/04/03 02:10:47;;;;;;;0.37;0.27;;;;;;;5.65;86.90;101307.63;4997624;28;20483;-54
2023/04/03 02:13:13;;;;;;;0.57;0.57;;;;;;;5.67;86.61;101309.38;5001649;28;20452;-53
2023/04/03 02:15:40;;;;;;;0.30;0.30;;;;;;;5.72;86.60;101316.44;5009680;28;20456;-54
2023/04/03 02:18:07;;;;;;;0.53;0.43;;;;;;;5.68;87.41;101303.25;5009852;28;20480;-55
2023/04/03 02:20:34;;;;;;;1.63;0.60;;;;;;;5.72;88.13;101303.25;5008249;28;20492;-55
2023/04/03 02:23:01;;;;;;;0.30;0.30;;;;;;;5.51;88.58;101300.47;5009398;28;20464;-53
2023/04/03 02:25:28;;;;;;;0.40;0.30;;;;;;;5.45;88.75;101298.66;5000245;28;20472;-55
2023/04/03 02:27:54;;;;;;;0.30;0.20;;;;;;;5.58;89.43;101289.97;5009226;28;20465;-55
2023/04/03 02:30:20;;;;;;;0.53;0.43;;;;;;;5.42;89.37;101296.00;5005467;28;20444;-54
2023/04/03 02:32:47;;;;;;;0.40;0.20;;;;;;;5.50;89.89;101310.13;5008796;28;20452;-52
2023/04/03 02:35:13;;;;;;;1.10;0.50;;;;;;;5.46;90.43;101292.50;4999185;28;20897;-53
2023/04/03 02:37:40;;;;;;;0.80;0.63;;;;;;;5.23;92.06;101296.72;5006582;28;20559;-54
2023/04/03 02:40:08;;;;;;;0.40;0.30;;;;;;;5.39;91.21;101293.34;4995562;28;20957;-53
2023/04/03 02:42:35;;;;;;;0.40;0.40;;;;;;;5.59;90.89;101291.72;4999109;28;20460;-53
2023/04/03 02:45:01;;;;;;;0.40;0.40;;;;;;;5.65;90.64;101296.19;5009599;28;20817;-54
2023/04/03 02:47:28;;;;;;;0.40;0.30;;;;;;;5.63;90.56;101300.56;5009158;28;20483;-53
2023/04/03 02:49:54;;;;;;;0.73;0.40;;;;;;;5.53;89.89;101296.09;5007792;28;20953;-54
2023/04/03 02:52:21;;;;;;;0.40;0.37;;;;;;;5.40;90.91;101297.75;5003934;28;20452;-52
2023/04/03 02:54:47;;;;;;;0.80;0.80;;;;;;;5.21;90.39;101296.69;5008921;28;20888;-51
2023/04/03 02:57:14;;;;;;;0.40;0.40;;;;;;;5.43;90.06;101305.66;5009079;28;20483;-52
2023/04/03 02:59:41;;;;;;;0.30;0.30;;;;;;;5.28;90.71;101301.16;5000669;28;20488;-53
2023/04/03 03:02:08;;;;;;;0.40;0.30;;;;;;;5.35;90.79;101295.06;4990032;28;21005;-51
2023/04/03 03:04:35;;;;;;;0.40;0.40;;;;;;;5.44;88.80;101307.44;5008993;28;20902;-53
2023/04/03 03:07:02;;;;;;;0.57;0.30;;;;;;;5.20;91.22;101304.56;5008981;28;20546;-52
2023/04/03 03:09:29;;;;;;;0.90;0.40;;;;;;;5.22;91.46;101306.38;5008967;28;20459;-52
2023/04/03 03:11:56;;;;;;;0.53;0.53;;;;;;;5.23;91.83;101310.78;5003340;28;20448;-52
2023/04/03 03:14:23;;;;;;;0.30;0.30;;;;;;;5.19;91.71;101308.94;5009142;28;20452;-52
2023/04/03 03:16:50;;;;;;;0.70;0.70;;;;;;;5.12;91.71;101312.41;5008833;28;20472;-52
2023/04/03 03:19:16;;;;;;;0.87;0.60;;;;;;;5.24;91.67;101315.16;5008696;28;20461;-51
2023/04/03 03:21:42;;;;;;;1.60;0.37;;;;;;;5.22;91.39;101313.41;5009092;28;20492;-52
2023/04/03 03:24:09;;;;;;;0.40;0.33;;;;;;;5.17;91.39;101315.97;5008819;28;20957;-52
2023/04/03 03:26:35;;;;;;;0.83;0.83;;;;;;;5.13;90.90;101310.66;5004492;28;20488;-51
2023/04/03 03:29:02;;;;;;;0.30;0.20;;;;;;;5.14;91.46;101310.66;5005807;28;20453;-51
2023/04/03 03:31:28;;;;;;;0.60;0.20;;;;;;;5.19;91.16;101308.94;5008408;28;20448;-53
2023/04/03 03:33:55;;;;;;;0.30;0.20;;;;;;;5.16;91.77;101310.69;5008685;28;20460;-52
2023/04/03 03:36:21;;;;;;;0.30;0.20;;;;;;;5.31;91.86;101311.72;4995419;28;20504;-53
2023/04/03 03:38:48;;;;;;;0.30;0.30;;;;;;;5.34;91.41;101311.75;5006810;28;20953;-51
2023/04/03 03:41:14;;;;;;;0.70;0.70;;;;;;;5.48;91.33;101310.97;5004719;28;20500;-53
2023/04/03 03:43:41;;;;;;;0.40;0.30;;;;;;;5.56;91.49;101309.28;5002699;28;21023;-52
2023/04/03 03:46:08;;;;;;;1.83;0.70;;;;;;;5.24;91.76;101311.66;5012135;28;20478;-52
2023/04/03 03:48:34;;;;;;;0.87;0.87;;;;;;;5.07;93.23;101308.81;5012432;28;20456;-52
2023/04/03 03:51:00;;;;;;;0.83;0.67;;;;;;;5.10;93.14;101305.38;5011487;28;20965;-52
2023/04/03 03:53:27;;;;;;;0.30;0.30;;;;;;;5.11;93.70;101315.03;5005248;28;20852;-54
2023/04/03 03:55:53;;;;;;;0.67;0.33;;;;;;;5.08;93.87;101313.25;5011767;28;20977;-52
2023/04/03 03:58:20;;;;;;;0.50;0.50;;;;;;;4.97;94.30;101309.63;5012189;28;20453;-51
2023/04/03 04:00:46;;;;;;;5.20;0.60;;;;;;;5.20;94.63;101315.09;5000389;28;20527;-53
2023/04/03 04:03:13;;;;;;;2.40;0.87;;;;;;;4.99;94.95;101311.41;5012240;28;20915;-52
2023/04/03 04:05:39;;;;;;;0.50;0.50;;;;;;;4.98;95.41;101299.09;5011780;28;20503;-52
2023/04/03 04:08:06;;;;;;;0.40;0.27;;;;;;;4.97;95.16;101305.22;5005261;28;20919;-52
2023/04/03 04:10:33;;;;;;;0.70;0.40;;;;;;;5.00;94.46;101305.25;5001589;28;20826;-52
2023/04/03 04:13:00;;;;;;;1.80;1.27;;;;;;;5.19;94.55;101314.22;4982632;28;20460;-51
2023/04/03 04:15:26;;;;;;;0.40;0.37;;;;;;;5.02;94.26;101313.19;4989342;28;20472;-51
2023/04/03 04:17:53;;;;;;;0.20;0.20;;;;;;;5.25;93.60;101306.41;4979824;28;20498;-53
2023/04/03 04:20:20;;;;;;;0.30;0.20;;;;;;;5.03;94.20;101309.66;4986201;28;20457;-50
2023/04/03 04:22:46;;;;;;;0.60;0.60;;;;;;;5.34;94.42;101313.47;4990644;28;20935;-50
2023/04/03 04:25:13;;;;;;;0.30;0.20;;;;;;;5.40;92.56;101305.66;4999082;28;20460;-50
2023/04/03 04:27:39;;;;;;;0.30;0.30;;;;;;;5.29;93.21;101312.56;5011394;28;20481;-51
2023/04/03 04:30:06;;;;;;;0.50;0.50;;;;;;;5.12;92.61;101316.81;5006650;28;20522;-52
2023/04/03 04:32:33;;;;;;;0.40;0.37;;;;;;;5.05;93.99;101318.47;5011432;28;21040;-51
2023/04/03 04:35:00;;;;;;;0.40;0.40;;;;;;;4.74;95.36;101322.53;5004070;28;20497;-50
2023/04/03 04:37:26;;;;;;;0.47;0.47;;;;;;;4.95;94.66;101321.91;4995191;28;21012;-50
2023/04/03 04:39:53;;;;;;;0.83;0.83;;;;;;;5.03;94.44;101312.31;4999846;28;20877;-51
2023/04/03 04:42:19;;;;;;;0.33;0.20;;;;;;;5.05;94.29;101318.47;5000332;28;20489;-50
2023/04/03 04:44:46;;;;;;;2.33;0.30;;;;;;;4.59;94.41;101320.59;5011362;28;20448;-51
2023/04/03 04:47:12;;;;;;;0.30;0.20;;;;;;;4.56;94.37;101328.47;5010953;28;20526;-51
2023/04/03 04:49:38;;;;;;;0.30;0.20;;;;;;;4.67;93.40;101323.34;5011353;28;20462;-51
2023/04/03 04:52:06;;;;;;;2.10;0.30;;;;;;;4.76;92.21;101315.53;4997634;28;20978;-50
2023/04/03 04:54:32;;;;;;;0.30;0.20;;;;;;;4.74;91.72;101312.00;4989046;28;20456;-51
2023/04/03 04:56:59;;;;;;;0.60;0.60;;;;;;;4.71;90.78;101326.00;5010051;28;20475;-51
2023/04/03 04:59:25;;;;;;;0.50;0.47;;;;;;;4.81;90.77;101316.47;4988660;28;20462;-50
2023/04/03 05:01:52;;;;;;;0.60;0.60;;;;;;;4.68;90.79;101330.38;5006486;28;20503;-53
2023/04/03 05:04:18;;;;;;;0.30;0.20;;;;;;;4.50;90.82;101330.13;4999159;28;20453;-52
2023/04/03 05:06:45;;;;;;;15.63;1.17;;;;;;;4.61;91.29;101333.78;4994670;28;20469;-50
2023/04/03 05:09:12;;;;;;;0.30;0.20;;;;;;;4.55;91.25;101331.97;5001891;28;20461;-52
2023/04/03 05:11:38;;;;;;;0.20;0.10;;;;;;;4.45;91.67;101341.47;5005155;28;20791;-51
2023/04/03 05:14:08;;;;;;;0.83;0.83;;;;;;;4.57;90.87;101340.75;5010625;28;20543;-50
2023/04/03 05:16:34;;;;;;;3.17;0.63;;;;;;;4.85;91.36;101338.47;5010470;28;20943;-51
2023/04/03 05:19:01;;;;;;;0.27;0.17;;;;;;;4.76;90.85;101340.09;5010582;28;20879;-50
2023/04/03 05:21:31;;;;;;;0.37;0.30;;;;;;;4.80;90.41;101345.41;4996205;28;20519;-52
2023/04/03 05:24:02;;;;;;;9.00;0.50;;;;;;;4.79;90.74;101349.78;5001525;28;20463;-52
2023/04/03 05:26:30;;;;;;;0.70;0.57;;;;;;;4.60;90.22;101353.94;5009523;28;20639;-53
2023/04/03 05:28:56;;;;;;;0.30;0.20;;;;;;;4.69;89.18;101356.72;5008182;28;20456;-52
2023/04/03 05:31:23;;;;;;;0.30;0.20;;;;;;;4.60;88.52;101363.59;5009094;28;20832;-53
2023/04/03 05:33:50;;;;;;;0.80;0.70;;;;;;;4.55;87.84;101362.66;5010418;28;20452;-53
2023/04/03 05:36:17;;;;;;;0.30;0.30;;;;;;;4.59;87.39;101356.56;4996936;28;20913;-53
2023/04/03 05:38:44;;;;;;;0.50;0.50;;;;;;;4.34;87.89;101366.75;5010142;28;20453;-52
2023/04/03 05:41:10;;;;;;;0.30;0.20;;;;;;;4.43;88.44;101366.91;5001357;28;20501;-53
2023/04/03 05:43:38;;;;;;;0.33;0.23;;;;;;;4.49;87.42;101367.84;4995844;28;20870;-52
2023/04/03 05:46:13;;;;;;;0.20;0.20;;;;;;;4.52;88.13;101376.66;5010206;28;20476;-52
2023/04/03 05:48:40;;;;;;;0.50;0.50;;;;;;;4.56;87.16;101378.47;5009942;28;20448;-52
2023/04/03 05:51:13;;;;;;;0.87;0.87;;;;;;;4.49;87.52;101378.38;5010033;28;20456;-53
2023/04/03 05:53:40;;;;;;;0.30;0.20;;;;;;;4.58;87.70;101381.13;4997080;28;20459;-54
2023/04/03 05:56:06;;;;;;;0.30;0.20;;;;;;;4.40;88.12;101377.38;5010008;28;20527;-52
2023/04/03 05:58:33;;;;;;;0.30;0.20;;;;;;;4.60;88.01;101376.75;5009841;28;20969;-54
2023/04/03 06:01:00;;;;;;;2.40;2.30;;;;;;;4.45;87.82;101383.59;4998878;28;20480;-53
2023/04/03 06:03:26;;;;;;;0.33;0.20;;;;;;;4.27;87.89;101391.25;5009896;28;20456;-54
2023/04/03 06:05:53;;;;;;;0.40;0.23;;;;;;;4.41;88.32;101389.69;5010157;28;20476;-53
2023/04/03 06:08:20;;;;;;;0.30;0.20;;;;;;;4.44;87.99;101381.81;5008679;28;20457;-52
2023/04/03 06:10:47;;;;;;;0.30;0.20;;;;;;;4.14;88.38;101391.91;5009694;28;20531;-53
2023/04/03 06:13:14;;;;;;;1.73;0.60;;;;;;;3.98;88.59;101382.03;5009696;28;20444;-53
2023/04/03 06:15:40;;;;;;;0.30;0.20;;;;;;;4.08;89.11;101386.53;5009590;28;20463;-52
2023/04/03 06:18:07;;;;;;;0.30;0.20;;;;;;;4.05;89.55;101387.38;5009540;28;20471;-52
2023/04/03 06:20:33;;;;;;;0.80;0.80;;;;;;;4.23;89.41;101386.75;5009688;28;20464;-53
2023/04/03 06:23:00;;;;;;;1.40;0.87;;;;;;;4.39;88.88;101395.81;5008255;28;20496;-53
2023/04/03 06:25:26;;;;;;;0.50;0.50;;;;;;;4.29;88.60;101405.28;5009406;28;20551;-53
2023/04/03 06:27:55;;;;;;;1.37;0.60;;;;;;;4.28;89.47;101405.28;5009294;28;20914;-52
2023/04/03 06:30:21;;;;;;;1.27;0.43;;;;;;;4.29;89.32;101407.94;5005316;28;20531;-54
2023/04/03 06:32:48;;;;;;;0.30;0.20;;;;;;;4.20;88.42;101410.41;5009203;28;21017;-52
2023/04/03 06:35:14;;;;;;;0.27;0.20;;;;;;;4.23;88.46;101413.09;4999621;28;20478;-53
2023/04/03 06:37:41;;;;;;;0.30;0.20;;;;;;;4.40;87.73;101401.09;5006391;28;20488;-52
2023/04/03 06:40:21;;;;;;;1.13;0.30;;;;;;;4.57;87.84;101410.97;5009077;28;20458;-53
2023/04/03 06:42:47;;;;;;;3.00;1.30;;;;;;;4.59;88.00;101414.50;4985006;28;20492;-54
2023/04/03 06:45:14;;;;;;;0.33;0.23;;;;;;;4.78;87.88;101410.34;5009327;28;20488;-54
2023/04/03 06:47:41;;;;;;;0.90;0.87;;;;;;;4.79;87.73;101417.38;5009386;28;20476;-53
2023/04/03 06:50:11;;;;;;;14.43;0.73;;;;;;;4.93;87.46;101421.06;5009441;28;20814;-53
2023/04/03 06:52:39;;;;;;;0.40;0.40;;;;;;;4.83;86.54;101412.19;5009290;28;20459;-53
2023/04/03 06:55:07;;;;;;;2.30;0.60;;;;;;;4.87;86.87;101421.91;5009312;28;20463;-54
2023/04/03 06:57:33;;;;;;;1.03;0.73;;;;;;;5.10;86.91;101421.31;5009191;28;20997;-61
2023/04/03 07:00:00;;;;;;;0.30;0.30;;;;;;;4.95;85.88;101422.00;4998136;28;20504;-54
2023/04/03 07:02:26;;;;;;;0.30;0.20;;;;;;;4.72;86.14;101422.59;4996562;28;20496;-54
2023/04/03 07:04:53;;;;;;;0.30;0.20;;;;;;;4.80;86.37;101438.50;5009354;28;20496;-54
2023/04/03 07:07:19;;;;;;;3.40;0.87;;;;;;;4.62;87.00;101449.63;4982983;28;20853;-54
2023/04/03 07:09:47;;;;;;;0.90;0.30;;;;;;;4.82;86.73;101428.88;5008892;28;20945;-53
2023/04/03 07:12:14;;;;;;;0.30;0.20;;;;;;;4.93;85.97;101452.69;4996261;28;20837;-53
2023/04/03 07:14:41;;;;;;;0.80;0.50;;;;;;;4.91;85.92;101436.88;5009029;28;20457;-54
2023/04/03 07:17:07;;;;;;;0.50;0.30;;;;;;;5.02;85.56;101440.53;5009219;28;20473;-54
2023/04/03 07:19:34;;;;;;;0.40;0.40;;;;;;;5.01;87.56;101443.16;5011446;28;20949;-54
2023/04/03 07:22:00;;;;;;;0.93;0.83;;;;;;;5.24;85.26;101457.50;5013017;28;20556;-53
2023/04/03 07:24:27;;;;;;;0.30;0.30;;;;;;;5.37;84.71;101458.53;4999574;28;20457;-54
2023/04/03 07:26:53;;;;;;;0.53;0.53;;;;;;;5.10;84.60;101456.44;5012239;28;20484;-54
2023/04/03 07:29:21;;;;;;;0.50;0.40;;;;;;;5.26;85.07;101453.13;5007745;28;20509;-54
2023/04/03 07:31:47;;;;;;;0.30;0.20;;;;;;;5.27;84.33;101459.28;5011563;28;20478;-54
2023/04/03 07:34:14;;;;;;;0.20;0.20;;;;;;;5.48;84.55;101453.34;5010984;28;20534;-53
2023/04/03 07:36:41;;;;;;;0.33;0.33;;;;;;;5.61;84.96;101455.25;5001727;28;20556;-53
2023/04/03 07:39:07;;;;;;;0.30;0.20;;;;;;;5.83;82.99;101451.97;5012453;28;20526;-53
2023/04/03 07:41:34;;;;;;;1.13;1.03;;;;;;;5.88;81.96;101457.28;5005826;28;20461;-54
2023/04/03 07:44:01;;;;;;;0.50;0.47;;;;;;;5.78;80.80;101458.09;5008264;28;20463;-53
2023/04/03 07:46:27;;;;;;;1.73;0.63;;;;;;;5.95;81.42;101456.53;5012696;28;20483;-54
2023/04/03 07:48:54;;;;;;;0.30;0.30;;;;;;;5.78;79.18;101453.69;5012602;28;20456;-53
2023/04/03 07:51:24;;;;;;;0.60;0.30;;;;;;;5.67;79.19;101455.34;5012953;28;20462;-53
2023/04/03 07:53:50;;;;;;;0.40;0.40;;;;;;;5.95;80.16;101456.53;5012956;28;20871;-52
2023/04/03 07:56:17;;;;;;;0.30;0.20;;;;;;;6.08;79.98;101462.78;5013103;28;20483;-53
2023/04/03 07:58:43;;;;;;;0.30;0.20;;;;;;;5.90;77.83;101442.41;5012727;28;20510;-53
2023/04/03 08:01:10;;;;;;;26.43;0.83;;;;;;;6.01;78.88;101467.13;4994202;28;20460;-52
2023/04/03 08:03:37;;;;;;;0.30;0.30;;;;;;;6.29;79.43;101455.03;5008248;28;20496;-53
2023/04/03 08:06:06;;;;;;;0.37;0.20;;;;;;;6.27;78.84;101459.41;5013436;28;20874;-53
2023/04/03 08:08:41;;;;;;;0.50;0.50;;;;;;;6.21;77.80;101468.19;5013075;28;20499;-53
2023/04/03 08:11:08;;;;;;;0.40;0.40;;;;;;;6.17;76.60;101484.00;5012862;28;20452;-53
2023/04/03 08:13:35;;;;;;;0.40;0.40;;;;;;;6.09;77.44;101461.91;5012577;28;20527;-52
2023/04/03 08:16:09;;;;;;;6.03;0.30;;;;;;;6.24;76.11;101462.03;5012241;28;20472;-53
2023/04/03 08:18:35;;;;;;;0.30;0.20;;;;;;;6.20;78.91;101455.88;5006427;28;20958;-53
2023/04/03 08:21:05;;;;;;;0.33;0.30;;;;;;;6.20;77.95;101471.69;5004749;28;20452;-52
2023/04/03 08:23:32;;;;;;;0.50;0.50;;;;;;;6.19;77.82;101467.28;5012072;28;20495;-53
2023/04/03 08:25:58;;;;;;;0.73;0.73;;;;;;;6.44;77.27;101459.53;5011774;28;20569;-53
2023/04/03 08:28:25;;;;;;;0.60;0.60;;;;;;;6.42;78.71;101466.56;4986295;28;20452;-54
2023/04/03 08:30:51;;;;;;;3.13;2.57;;;;;;;6.46;77.47;101465.75;5005896;28;20861;-53
2023/04/03 08:33:17;;;;;;;0.97;0.97;;;;;;;6.56;79.46;101464.91;5011559;28;20457;-54
2023/04/03 08:35:44;;;;;;;1.00;0.63;;;;;;;6.58;77.17;101460.53;4997908;28;20460;-54
2023/04/03 08:38:10;;;;;;;5.30;0.63;;;;;;;6.36;77.85;101472.69;5011485;28;20460;-54
2023/04/03 08:40:38;;;;;;;0.97;0.40;;;;;;;6.33;77.48;101464.75;5011373;28;20813;-54
2023/04/03 08:43:29;;;;;;;1.10;1.00;;;;;;;6.18;78.00;101475.19;5000968;28;20554;-53
2023/04/03 08:46:00;;;;;;;0.50;0.47;;;;;;;6.74;80.89;101472.97;5006465;28;20469;-54
2023/04/03 08:48:41;;;;;;;2.37;1.00;;;;;;;6.71;78.22;101478.22;5003603;28;20841;-54
2023/04/03 08:51:15;;;;;;;0.30;0.20;;;;;;;6.74;76.20;101472.97;5010027;28;20452;-54
2023/04/03 08:54:04;;;;;;;0.63;0.63;;;;;;;6.49;76.14;101481.59;5010907;28;20455;-54
2023/04/03 08:56:33;;;;;;;0.30;0.20;;;;;;;6.63;76.50;101481.69;5010700;28;20913;-54
2023/04/03 08:59:05;;;;;;;0.60;0.40;;;;;;;6.69;77.15;101479.09;4995332;28;20901;-53
2023/04/03 09:01:39;;;;;;;0.60;0.60;;;;;;;6.50;75.02;101489.53;5004196;28;20452;-53
2023/04/03 09:04:12;;;;;;;0.30;0.20;;;;;;;6.41;73.28;101478.88;4986726;28;21035;-54
2023/04/03 09:06:42;;;;;;;0.40;0.33;;;;;;;6.66;76.08;101485.22;5010809;28;20479;-54
2023/04/03 09:09:18;;;;;;;0.43;0.40;;;;;;;6.69;73.06;101485.25;5010820;28;20453;-55
2023/04/03 09:12:09;;;;;;;14.70;1.30;;;;;;;6.86;74.21;101479.22;5010654;28;20788;-54
2023/04/03 09:14:39;;;;;;;2.10;2.00;;;;;;;6.56;73.81;101482.50;4997426;28;20460;-54
2023/04/03 09:17:35;;;;;;;1.07;0.40;;;;;;;6.97;73.19;101481.00;5011036;28;20550;-53
2023/04/03 09:20:17;;;;;;;2.33;1.60;;;;;;;6.86;73.65;101481.84;5010711;28;20440;-53
2023/04/03 09:22:46;;;;;;;0.30;0.30;;;;;;;7.01;71.85;101469.59;5010571;28;20492;-53
2023/04/03 09:25:30;;;;;;;0.60;0.53;;;;;;;6.96;73.49;101479.25;5010466;28;20460;-53
2023/04/03 09:27:58;;;;;;;1.63;0.60;;;;;;;6.93;72.68;101478.34;5010234;28;20964;-54
2023/04/03 09:30:26;;;;;;;0.30;0.20;;;;;;;7.19;74.48;101476.72;5006527;28;20448;-53
2023/04/03 09:32:56;;;;;;;0.50;0.50;;;;;;;7.30;72.17;101475.00;5010453;28;20448;-54
2023/04/03 09:35:33;;;;;;;0.50;0.40;;;;;;;7.43;73.83;101473.28;4999216;28;21021;-54
2023/04/03 09:38:13;;;;;;;0.87;0.87;;;;;;;7.44;71.91;101480.34;4986986;28;20583;-54
2023/04/03 09:40:42;;;;;;;0.30;0.20;;;;;;;7.68;70.92;101483.06;5010255;28;20606;-54
2023/04/03 09:43:38;;;;;;;0.30;0.20;;;;;;;7.54;67.60;101468.00;4999149;28;21009;-53
2023/04/03 09:46:25;;;;;;;0.50;0.43;;;;;;;7.47;69.49;101464.47;5010436;28;20979;-54
2023/04/03 09:48:57;;;;;;;0.50;0.40;;;;;;;7.52;68.16;101483.00;5010037;28;20484;-54
2023/04/03 09:51:34;;;;;;;0.63;0.40;;;;;;;7.51;67.31;101473.31;5009944;28;20826;-53
2023/04/03 09:54:25;;;;;;;0.50;0.43;;;;;;;7.37;68.80;101465.31;5010062;28;20492;-53
2023/04/03 09:56:55;;;;;;;2.67;1.13;;;;;;;7.87;66.29;101459.28;5009586;28;20472;-53
2023/04/03 09:59:22;;;;;;;1.87;1.70;;;;;;;7.48;64.50;101481.25;5004337;28;20457;-54
2023/04/03 10:02:01;;;;;;;5.47;0.53;;;;;;;7.49;65.15;101462.72;5002142;28;20457;-53
2023/04/03 10:04:39;;;;;;;7.83;0.70;;;;;;;7.86;65.51;101466.34;4989572;28;20449;-54
2023/04/03 10:07:36;;;;;;;2.87;0.53;;;;;;;7.73;64.09;101476.03;5008461;28;20476;-53
2023/04/03 10:10:15;;;;;;;0.40;0.40;;;;;;;7.20;61.94;101482.91;5009623;28;20462;-54
2023/04/03 10:12:41;;;;;;;0.43;0.40;;;;;;;6.78;63.52;101477.38;5009580;28;20499;-53
2023/04/03 10:15:13;;;;;;;13.10;0.70;;;;;;;6.98;65.20;101469.56;5009450;28;20487;-53
2023/04/03 10:17:46;;;;;;;0.30;0.20;;;;;;;7.63;67.06;101470.69;5010174;28;20475;-53
2023/04/03 10:20:19;;;;;;;0.40;0.40;;;;;;;7.42;66.07;101471.53;5009797;28;20823;-53
2023/04/03 10:23:04;;;;;;;0.50;0.40;;;;;;;7.79;65.89;101477.78;5009493;28;20492;-54
2023/04/03 10:25:54;;;;;;;9.83;0.87;;;;;;;8.09;67.73;101476.97;5009277;28;20527;-54
2023/04/03 10:28:32;;;;;;;0.30;0.20;;;;;;;7.78;65.98;101473.38;5009556;28;20895;-53
2023/04/03 10:31:01;;;;;;;2.37;0.77;;;;;;;7.41;65.56;101469.78;5005718;28;20550;-54
2023/04/03 10:33:34;;;;;;;0.63;0.50;;;;;;;7.30;67.37;101472.38;5009311;28;20456;-52
2023/04/03 10:36:12;;;;;;;0.40;0.40;;;;;;;7.55;67.27;101462.75;4996204;28;20472;-53
2023/04/03 10:39:00;;;;;;;0.30;0.20;;;;;;;7.56;64.90;101469.81;5009460;28;20452;-53
2023/04/03 10:42:05;;;;;;;0.40;0.40;;;;;;;7.60;66.64;101470.69;4979434;28;20462;-54
2023/04/03 10:45:18;;;;;;;0.50;0.30;;;;;;;7.37;66.88;101465.31;4925683;29;20459;-53
2023/04/03 10:47:54;;;;;;;11.30;1.20;;;;;;;7.28;66.75;101468.84;5009082;28;20551;-55
2023/04/03 10:50:52;;;;;;;3.83;1.37;;;;;;;7.44;68.36;101467.13;5009033;28;20547;-53
2023/04/03 10:53:36;;;;;;;1.07;1.07;;;;;;;7.24;69.84;101469.69;5010753;28;20453;-54
2023/04/03 10:56:20;;;;;;;3.70;1.00;;;;;;;7.60;67.49;101462.75;5015836;28;20472;-54
2023/04/03 10:59:01;;;;;;;0.90;0.40;;;;;;;7.55;65.41;101462.75;5014143;28;20452;-54
2023/04/03 11:01:35;;;;;;;0.80;0.77;;;;;;;7.93;67.48;101469.88;5008012;28;20448;-54
2023/04/03 11:04:05;;;;;;;0.63;0.63;;;;;;;7.95;66.02;101452.25;5015620;28;20877;-54
2023/04/03 11:06:49;;;;;;;1.57;1.47;;;;;;;8.07;64.37;101452.22;5015656;28;20475;-54
2023/04/03 11:09:19;;;;;;;1.40;1.40;;;;;;;7.85;66.73;101464.56;5015729;28;20448;-54
2023/04/03 11:11:49;;;;;;;0.40;0.30;;;;;;;7.66;65.97;101455.69;5015353;28;20456;-54
2023/04/03 11:14:28;;;;;;;7.53;0.87;;;;;;;7.49;64.18;101454.78;5015375;28;20452;-54
2023/04/03 11:17:05;;;;;;;0.43;0.20;;;;;;;7.60;65.01;101455.69;5015414;28;20526;-55
2023/04/03 11:20:00;;;;;;;0.50;0.40;;;;;;;7.84;65.19;101456.63;5015336;28;20452;-54
2023/04/03 11:22:37;;;;;;;2.03;0.63;;;;;;;7.88;63.73;101442.50;5015236;28;20456;-54
2023/04/03 11:25:19;;;;;;;0.50;0.40;;;;;;;8.43;63.96;101435.47;5015485;28;20539;-54
2023/04/03 11:28:05;;;;;;;0.50;0.50;;;;;;;7.95;62.01;101425.78;5015913;28;20518;-54
2023/04/03 11:31:09;;;;;;;6.37;0.90;;;;;;;8.08;64.55;101434.56;5011269;28;20510;-52
2023/04/03 11:34:06;;;;;;;8.73;0.77;;;;;;;8.16;64.22;101435.47;4995497;28;20526;-52
2023/04/03 11:36:41;;;;;;;0.60;0.60;;;;;;;8.20;66.55;101422.22;4990711;28;20841;-53
2023/04/03 11:39:21;;;;;;;0.60;0.60;;;;;;;8.01;62.59;101441.66;5015240;28;20820;-52
2023/04/03 11:41:47;;;;;;;0.57;0.50;;;;;;;7.78;63.31;101424.84;5007526;28;20680;-52
2023/04/03 11:44:37;;;;;;;0.40;0.30;;;;;;;8.08;63.53;101414.28;5012953;28;20492;-52
2023/04/03 11:47:10;;;;;;;0.40;0.30;;;;;;;7.83;61.27;101424.00;5015093;28;20479;-53
2023/04/03 11:50:00;;;;;;;4.23;0.60;;;;;;;8.11;61.18;101431.94;5015112;28;20467;-51